createdAt,value
2018-12-30T00:00:22.031Z,8.27
2018-12-30T00:02:53.769Z,8.26
2018-12-30T00:05:25.325Z,8.25
2018-12-30T00:07:56.609Z,8.25
2018-12-30T00:10:27.852Z,8.26
2018-12-30T00:12:59.163Z,8.26
2018-12-30T00:15:30.673Z,8.27
2018-12-30T00:18:01.860Z,8.26
2018-12-30T00:20:33.041Z,8.28
2018-12-30T00:23:04.297Z,8.28
2018-12-30T00:25:35.741Z,8.29
2018-12-30T00:28:06.925Z,8.29
2018-12-30T00:30:38.141Z,8.31
2018-12-30T00:33:09.410Z,8.33
2018-12-30T00:35:40.596Z,8.31
2018-12-30T00:38:11.790Z,8.33
2018-12-30T00:40:43.094Z,8.31
2018-12-30T00:43:14.319Z,8.32
2018-12-30T00:45:45.562Z,8.32
2018-12-30T00:48:16.778Z,8.34
2018-12-30T00:50:48.018Z,8.33
2018-12-30T00:53:19.274Z,8.35
2018-12-30T00:55:50.479Z,8.35
2018-12-30T00:58:21.739Z,8.35
2018-12-30T01:00:53.285Z,8.35
2018-12-30T01:03:25.578Z,8.35
2018-12-30T01:05:56.740Z,8.35
2018-12-30T01:08:27.962Z,8.36
2018-12-30T01:10:59.132Z,8.34
2018-12-30T01:13:30.327Z,8.33
2018-12-30T01:16:01.516Z,8.34
2018-12-30T01:18:32.696Z,8.35
2018-12-30T01:21:04.065Z,8.35
2018-12-30T01:23:35.347Z,8.35
2018-12-30T01:26:06.513Z,8.32
2018-12-30T01:28:37.752Z,8.32
2018-12-30T01:31:08.965Z,8.33
2018-12-30T01:33:40.136Z,8.33
2018-12-30T01:36:12.228Z,8.36
2018-12-30T01:38:43.435Z,8.37
2018-12-30T01:41:14.654Z,8.39
2018-12-30T01:43:45.878Z,8.41
2018-12-30T01:46:17.071Z,8.43
2018-12-30T01:48:48.261Z,8.45
2018-12-30T01:51:19.483Z,8.46
2018-12-30T01:53:50.639Z,8.47
2018-12-30T01:56:21.792Z,8.50
2018-12-30T01:58:52.962Z,8.50
2018-12-30T02:01:24.210Z,8.52
2018-12-30T02:03:55.608Z,8.53
2018-12-30T02:06:27.509Z,8.56
2018-12-30T02:09:01.820Z,8.58
2018-12-30T02:11:39.993Z,8.62
2018-12-30T02:14:11.201Z,8.64
2018-12-30T02:16:42.398Z,8.64
2018-12-30T02:19:13.798Z,8.66
2018-12-30T02:21:45.297Z,8.68
2018-12-30T02:24:16.580Z,8.70
2018-12-30T02:26:47.807Z,8.72
2018-12-30T02:29:19.408Z,8.74
2018-12-30T02:31:50.665Z,8.77
2018-12-30T02:34:21.818Z,8.79
2018-12-30T02:36:53.044Z,8.81
2018-12-30T02:39:24.356Z,8.82
2018-12-30T02:41:55.615Z,8.83
2018-12-30T02:44:26.898Z,8.85
2018-12-30T02:46:58.134Z,8.87
2018-12-30T02:49:29.514Z,8.88
2018-12-30T02:52:00.717Z,8.89
2018-12-30T02:54:31.969Z,8.91
2018-12-30T02:57:03.165Z,8.91
2018-12-30T02:59:34.376Z,8.91
2018-12-30T03:02:06.560Z,8.91
2018-12-30T03:04:37.953Z,8.91
2018-12-30T03:07:09.265Z,8.90
2018-12-30T03:09:40.482Z,8.89
2018-12-30T03:12:11.749Z,8.89
2018-12-30T03:14:42.892Z,8.88
2018-12-30T03:17:14.157Z,8.88
2018-12-30T03:19:45.430Z,8.88
2018-12-30T03:22:16.585Z,8.85
2018-12-30T03:24:47.798Z,8.82
2018-12-30T03:27:19.105Z,8.79
2018-12-30T03:29:50.353Z,8.73
2018-12-30T03:32:21.627Z,8.66
2018-12-30T03:34:52.856Z,8.60
2018-12-30T03:37:24.143Z,8.52
2018-12-30T03:39:55.450Z,8.43
2018-12-30T03:42:26.746Z,8.34
2018-12-30T03:44:58.046Z,8.26
2018-12-30T03:47:29.287Z,8.16
2018-12-30T03:50:00.475Z,8.08
2018-12-30T03:52:31.694Z,8.00
2018-12-30T03:55:03.180Z,7.91
2018-12-30T03:57:34.365Z,7.81
2018-12-30T04:00:06.059Z,7.72
2018-12-30T04:02:37.217Z,7.67
2018-12-30T04:05:08.435Z,7.60
2018-12-30T04:07:39.583Z,7.55
2018-12-30T04:10:10.782Z,7.50
2018-12-30T04:12:41.994Z,7.48
2018-12-30T04:15:14.305Z,7.44
2018-12-30T04:17:45.596Z,7.41
2018-12-30T04:20:16.869Z,7.39
2018-12-30T04:22:49.088Z,7.35
2018-12-30T04:25:20.279Z,7.33
2018-12-30T04:27:51.672Z,7.32
2018-12-30T04:30:22.928Z,7.30
2018-12-30T04:32:54.230Z,7.28
2018-12-30T04:35:25.384Z,7.27
2018-12-30T04:37:56.595Z,7.25
2018-12-30T04:40:27.873Z,7.22
2018-12-30T04:43:00.172Z,7.22
2018-12-30T04:45:31.396Z,7.24
2018-12-30T04:48:02.604Z,7.25
2018-12-30T04:50:33.903Z,7.26
2018-12-30T04:53:05.127Z,7.27
2018-12-30T04:55:36.327Z,7.29
2018-12-30T04:58:07.510Z,7.29
2018-12-30T05:00:38.684Z,7.30
2018-12-30T05:03:10.065Z,7.33
2018-12-30T05:05:41.383Z,7.34
2018-12-30T05:08:12.596Z,7.35
2018-12-30T05:10:44.103Z,7.37
2018-12-30T05:13:15.314Z,7.37
2018-12-30T05:15:46.580Z,7.40
2018-12-30T05:18:17.837Z,7.39
2018-12-30T05:20:49.244Z,7.41
2018-12-30T05:23:20.594Z,7.43
2018-12-30T05:25:51.945Z,7.45
2018-12-30T05:28:23.088Z,7.46
2018-12-30T05:30:54.284Z,7.47
2018-12-30T05:33:25.527Z,7.49
2018-12-30T05:35:56.794Z,7.51
2018-12-30T05:38:28.034Z,7.51
2018-12-30T05:40:59.401Z,7.51
2018-12-30T05:43:30.747Z,7.53
2018-12-30T05:46:01.970Z,7.54
2018-12-30T05:48:33.167Z,7.53
2018-12-30T05:51:04.357Z,7.54
2018-12-30T05:53:35.517Z,7.52
2018-12-30T05:56:06.708Z,7.53
2018-12-30T05:58:37.977Z,7.52
2018-12-30T06:01:09.146Z,7.50
2018-12-30T06:03:40.369Z,7.49
2018-12-30T06:06:11.637Z,7.48
2018-12-30T06:08:42.902Z,7.46
2018-12-30T06:11:14.173Z,7.44
2018-12-30T06:13:45.418Z,7.40
2018-12-30T06:16:16.757Z,7.37
2018-12-30T06:18:48.188Z,7.35
2018-12-30T06:21:19.485Z,7.32
2018-12-30T06:23:50.693Z,7.30
2018-12-30T06:26:21.957Z,7.27
2018-12-30T06:28:53.148Z,7.25
2018-12-30T06:31:24.314Z,7.23
2018-12-30T06:33:55.805Z,7.23
2018-12-30T06:36:26.975Z,7.22
2018-12-30T06:38:58.195Z,7.17
2018-12-30T06:41:29.339Z,7.18
2018-12-30T06:44:00.600Z,7.17
2018-12-30T06:46:31.819Z,7.16
2018-12-30T06:49:03.006Z,7.14
2018-12-30T06:51:34.257Z,7.14
2018-12-30T06:54:05.441Z,7.13
2018-12-30T06:56:36.686Z,7.13
2018-12-30T06:59:07.876Z,7.12
2018-12-30T07:01:39.102Z,7.14
2018-12-30T07:04:10.332Z,7.14
2018-12-30T07:06:41.596Z,7.14
2018-12-30T07:09:12.782Z,7.14
2018-12-30T07:11:44.002Z,7.14
2018-12-30T07:14:15.246Z,7.14
2018-12-30T07:16:46.603Z,7.15
2018-12-30T07:19:17.820Z,7.14
2018-12-30T07:21:49.191Z,7.15
2018-12-30T07:24:20.354Z,7.17
2018-12-30T07:26:51.737Z,7.19
2018-12-30T07:29:23.142Z,7.21
2018-12-30T07:31:54.429Z,7.22
2018-12-30T07:34:25.813Z,7.22
2018-12-30T07:36:57.239Z,7.23
2018-12-30T07:39:28.674Z,7.22
2018-12-30T07:42:00.319Z,7.23
2018-12-30T07:44:31.825Z,7.22
2018-12-30T07:47:03.207Z,7.24
2018-12-30T07:49:34.705Z,7.24
2018-12-30T07:52:06.334Z,7.27
2018-12-30T07:54:37.552Z,7.30
2018-12-30T07:57:09.301Z,7.33
2018-12-30T07:59:40.842Z,7.36
2018-12-30T08:02:12.227Z,7.39
2018-12-30T08:04:43.592Z,7.43
2018-12-30T08:07:15.006Z,7.46
2018-12-30T08:09:46.329Z,7.49
2018-12-30T08:12:18.736Z,7.49
2018-12-30T08:14:50.093Z,7.53
2018-12-30T08:17:21.344Z,7.54
2018-12-30T08:19:52.577Z,7.56
2018-12-30T08:22:23.808Z,7.59
2018-12-30T08:24:55.007Z,7.62
2018-12-30T08:27:26.218Z,7.64
2018-12-30T08:29:57.467Z,7.68
2018-12-30T08:32:28.651Z,7.69
2018-12-30T08:35:00.231Z,7.71
2018-12-30T08:37:31.449Z,7.73
2018-12-30T08:40:02.668Z,7.76
2018-12-30T08:42:34.357Z,7.79
2018-12-30T08:45:05.707Z,7.81
2018-12-30T08:47:36.925Z,7.84
2018-12-30T08:50:08.151Z,7.87
2018-12-30T08:52:39.423Z,7.90
2018-12-30T08:55:10.573Z,7.92
2018-12-30T08:57:41.810Z,7.94
2018-12-30T09:00:13.137Z,7.98
2018-12-30T09:02:44.509Z,8.00
2018-12-30T09:05:15.805Z,8.01
2018-12-30T09:07:47.007Z,8.03
2018-12-30T09:10:22.426Z,8.07
2018-12-30T09:12:53.754Z,8.08
2018-12-30T09:15:25.128Z,8.11
2018-12-30T09:17:56.446Z,8.14
2018-12-30T09:20:27.696Z,8.16
2018-12-30T09:22:59.016Z,8.18
2018-12-30T09:25:30.201Z,8.20
2018-12-30T09:28:01.468Z,8.21
2018-12-30T09:30:32.618Z,8.23
2018-12-30T09:33:03.843Z,8.26
2018-12-30T09:35:35.053Z,8.26
2018-12-30T09:38:06.267Z,8.27
2018-12-30T09:40:37.604Z,8.27
2018-12-30T09:43:08.983Z,8.30
2018-12-30T09:45:40.319Z,8.31
2018-12-30T09:48:11.464Z,8.33
2018-12-30T09:50:42.678Z,8.36
2018-12-30T09:53:13.924Z,8.38
2018-12-30T09:55:45.178Z,8.41
2018-12-30T09:58:16.620Z,8.43
2018-12-30T10:00:48.012Z,8.45
2018-12-30T10:03:19.638Z,8.47
2018-12-30T10:05:50.971Z,8.47
2018-12-30T10:08:22.307Z,8.47
2018-12-30T10:10:53.733Z,8.46
2018-12-30T10:13:25.112Z,8.45
2018-12-30T10:15:56.382Z,8.46
2018-12-30T10:18:27.761Z,8.45
2018-12-30T10:20:59.383Z,8.45
2018-12-30T10:23:30.706Z,8.46
2018-12-30T10:26:02.058Z,8.46
2018-12-30T10:28:34.697Z,8.47
2018-12-30T10:31:07.051Z,8.49
2018-12-30T10:33:38.670Z,8.51
2018-12-30T10:36:10.097Z,8.53
2018-12-30T10:38:41.539Z,8.55
2018-12-30T10:41:12.937Z,8.59
2018-12-30T10:43:44.328Z,8.59
2018-12-30T10:46:15.577Z,8.62
2018-12-30T10:48:46.899Z,8.64
2018-12-30T10:51:18.284Z,8.64
2018-12-30T10:53:49.484Z,8.66
2018-12-30T10:56:20.719Z,8.68
2018-12-30T10:58:51.976Z,8.71
2018-12-30T11:01:23.269Z,8.74
2018-12-30T11:03:54.476Z,8.78
2018-12-30T11:06:25.737Z,8.81
2018-12-30T11:08:56.985Z,8.84
2018-12-30T11:11:28.161Z,8.87
2018-12-30T11:13:59.357Z,8.88
2018-12-30T11:16:30.688Z,8.89
2018-12-30T11:19:02.024Z,8.89
2018-12-30T11:21:33.345Z,8.88
2018-12-30T11:24:08.593Z,8.87
2018-12-30T11:26:37.677Z,8.89
2018-12-30T11:29:08.880Z,8.89
2018-12-30T11:31:40.139Z,8.88
2018-12-30T11:34:11.311Z,8.86
2018-12-30T11:36:42.669Z,8.85
2018-12-30T11:39:13.806Z,8.87
2018-12-30T11:41:44.988Z,8.90
2018-12-30T11:44:16.175Z,8.92
2018-12-30T11:46:47.311Z,8.94
2018-12-30T11:49:18.532Z,8.95
2018-12-30T11:51:49.712Z,8.98
2018-12-30T11:54:20.961Z,8.99
2018-12-30T11:56:52.203Z,8.99
2018-12-30T11:59:23.609Z,9.01
2018-12-30T12:01:55.057Z,9.01
2018-12-30T12:04:26.216Z,9.04
2018-12-30T12:06:57.448Z,9.05
2018-12-30T12:09:29.602Z,9.06
2018-12-30T12:12:00.914Z,9.08
2018-12-30T12:14:32.330Z,9.09
2018-12-30T12:17:03.905Z,9.10
2018-12-30T12:19:35.293Z,9.12
2018-12-30T12:22:06.597Z,9.13
2018-12-30T12:24:37.764Z,9.14
2018-12-30T12:27:09.141Z,9.14
2018-12-30T12:29:40.500Z,9.13
2018-12-30T12:32:11.773Z,9.13
2018-12-30T12:34:43.347Z,9.14
2018-12-30T12:37:14.706Z,9.13
2018-12-30T12:39:45.916Z,9.13
2018-12-30T12:42:17.381Z,9.14
2018-12-30T12:44:48.681Z,9.15
2018-12-30T12:47:19.998Z,9.17
2018-12-30T12:49:51.183Z,9.18
2018-12-30T12:52:22.375Z,9.20
2018-12-30T12:54:53.864Z,9.21
2018-12-30T12:57:25.211Z,9.21
2018-12-30T12:59:56.567Z,9.23
2018-12-30T13:02:27.748Z,9.23
2018-12-30T13:04:58.886Z,9.23
2018-12-30T13:07:31.101Z,9.20
2018-12-30T13:10:02.287Z,9.19
2018-12-30T13:12:33.572Z,9.20
2018-12-30T13:15:05.420Z,9.18
2018-12-30T13:17:36.763Z,9.20
2018-12-30T13:20:08.076Z,9.23
2018-12-30T13:22:39.719Z,9.27
2018-12-30T13:25:11.149Z,9.29
2018-12-30T13:27:42.477Z,9.30
2018-12-30T13:30:15.974Z,9.29
2018-12-30T13:32:48.537Z,9.29
2018-12-30T13:35:19.809Z,9.27
2018-12-30T13:37:51.447Z,9.28
2018-12-30T13:40:24.594Z,9.28
2018-12-30T13:42:56.053Z,9.27
2018-12-30T13:45:27.832Z,9.28
2018-12-30T13:47:59.098Z,9.27
2018-12-30T13:50:30.386Z,9.25
2018-12-30T13:53:01.695Z,9.25
2018-12-30T13:55:32.893Z,9.23
2018-12-30T13:58:04.135Z,9.20
2018-12-30T14:00:35.345Z,9.18
2018-12-30T14:03:06.627Z,9.16
2018-12-30T14:05:38.011Z,9.14
2018-12-30T14:08:09.339Z,9.11
2018-12-30T14:11:01.207Z,9.13
2018-12-30T14:13:32.458Z,9.11
2018-12-30T14:16:03.702Z,9.09
2018-12-30T14:18:35.092Z,9.08
2018-12-30T14:21:06.493Z,9.06
2018-12-30T14:23:37.773Z,9.04
2018-12-30T14:26:09.205Z,9.03
2018-12-30T14:28:40.533Z,9.03
2018-12-30T14:31:11.765Z,9.01
2018-12-30T14:33:43.269Z,9.01
2018-12-30T14:36:14.489Z,8.99
2018-12-30T14:38:45.963Z,9.01
2018-12-30T14:41:17.193Z,9.00
2018-12-30T14:43:48.521Z,9.00
2018-12-30T14:46:19.959Z,8.99
2018-12-30T14:48:51.369Z,9.00
2018-12-30T14:51:22.688Z,8.99
2018-12-30T14:53:53.897Z,8.97
2018-12-30T14:56:25.118Z,8.97
2018-12-30T14:58:56.427Z,8.95
2018-12-30T15:01:27.705Z,8.95
2018-12-30T15:03:59.054Z,8.92
2018-12-30T15:06:31.459Z,8.90
2018-12-30T15:09:02.992Z,8.87
2018-12-30T15:11:34.256Z,8.86
2018-12-30T15:14:05.624Z,8.85
2018-12-30T15:16:36.905Z,8.85
2018-12-30T15:19:08.217Z,8.83
2018-12-30T15:21:39.467Z,8.81
2018-12-30T15:24:10.730Z,8.79
2018-12-30T15:26:41.996Z,8.78
2018-12-30T15:29:13.387Z,8.77
2018-12-30T15:31:44.773Z,8.76
2018-12-30T15:34:16.232Z,8.76
2018-12-30T15:36:47.679Z,8.75
2018-12-30T15:39:18.933Z,8.74
2018-12-30T15:41:50.268Z,8.73
2018-12-30T15:44:21.541Z,8.70
2018-12-30T15:46:52.818Z,8.70
2018-12-30T15:49:24.145Z,8.68
2018-12-30T15:51:55.391Z,8.68
2018-12-30T15:54:26.629Z,8.67
2018-12-30T15:56:58.165Z,8.66
2018-12-30T15:59:29.604Z,8.65
2018-12-30T16:02:01.150Z,8.65
2018-12-30T16:04:32.538Z,8.64
2018-12-30T16:07:03.929Z,8.63
2018-12-30T16:09:35.393Z,8.62
2018-12-30T16:12:06.853Z,8.63
2018-12-30T16:14:38.408Z,8.62
2018-12-30T16:17:09.770Z,8.62
2018-12-30T16:19:41.263Z,8.62
2018-12-30T16:22:12.740Z,8.61
2018-12-30T16:24:44.095Z,8.61
2018-12-30T16:27:15.345Z,8.59
2018-12-30T16:29:46.546Z,8.60
2018-12-30T16:32:17.829Z,8.58
2018-12-30T16:34:49.046Z,8.55
2018-12-30T16:37:20.444Z,8.54
2018-12-30T16:39:51.641Z,8.52
2018-12-30T16:42:22.930Z,8.51
2018-12-30T16:44:54.141Z,8.50
2018-12-30T16:47:25.398Z,8.49
2018-12-30T16:49:56.683Z,8.49
2018-12-30T16:52:28.185Z,8.50
2018-12-30T16:54:59.712Z,8.49
2018-12-30T16:57:31.192Z,8.49
2018-12-30T17:00:02.803Z,8.48
2018-12-30T17:02:34.214Z,8.48
2018-12-30T17:05:06.404Z,8.49
2018-12-30T17:07:37.779Z,8.49
2018-12-30T17:10:10.123Z,8.51
2018-12-30T17:12:41.587Z,8.52
2018-12-30T17:15:12.949Z,8.52
2018-12-30T17:17:44.369Z,8.54
2018-12-30T17:20:15.795Z,8.56
2018-12-30T17:22:47.132Z,8.58
2018-12-30T17:25:18.586Z,8.59
2018-12-30T17:27:50.032Z,8.58
2018-12-30T17:30:21.455Z,8.59
2018-12-30T17:32:52.697Z,8.59
2018-12-30T17:35:23.978Z,8.59
2018-12-30T17:37:55.294Z,8.58
2018-12-30T17:40:26.730Z,8.58
2018-12-30T17:42:58.119Z,8.58
2018-12-30T17:45:29.514Z,8.57
2018-12-30T17:48:00.953Z,8.57
2018-12-30T17:50:32.429Z,8.55
2018-12-30T17:53:03.912Z,8.54
2018-12-30T17:55:35.234Z,8.53
2018-12-30T17:58:06.665Z,8.53
2018-12-30T18:00:38.141Z,8.54
2018-12-30T18:03:09.491Z,8.53
2018-12-30T18:05:40.843Z,8.54
2018-12-30T18:08:12.321Z,8.55
2018-12-30T18:10:43.732Z,8.54
2018-12-30T18:13:15.428Z,8.55
2018-12-30T18:15:46.683Z,8.56
2018-12-30T18:18:18.150Z,8.55
2018-12-30T18:20:49.685Z,8.57
2018-12-30T18:23:21.123Z,8.58
2018-12-30T18:25:58.626Z,8.57
2018-12-30T18:28:25.728Z,8.57
2018-12-30T18:30:57.132Z,8.56
2018-12-30T18:33:28.413Z,8.56
2018-12-30T18:35:59.716Z,8.57
2018-12-30T18:38:31.019Z,8.58
2018-12-30T18:41:03.342Z,8.57
2018-12-30T18:43:34.692Z,8.56
2018-12-30T18:46:06.068Z,8.56
2018-12-30T18:48:37.399Z,8.55
2018-12-30T18:51:08.858Z,8.53
2018-12-30T18:53:40.176Z,8.53
2018-12-30T18:56:11.415Z,8.51
2018-12-30T18:58:42.932Z,8.52
2018-12-30T19:01:15.640Z,8.50
2018-12-30T19:03:46.946Z,8.52
2018-12-30T19:06:18.215Z,8.49
2018-12-30T19:08:49.399Z,8.48
2018-12-30T19:11:20.681Z,8.48
2018-12-30T19:13:51.909Z,8.50
2018-12-30T19:16:23.165Z,8.50
2018-12-30T19:18:54.357Z,8.49
2018-12-30T19:21:25.642Z,8.50
2018-12-30T19:23:56.923Z,8.50
2018-12-30T19:26:28.099Z,8.48
2018-12-30T19:28:59.391Z,8.46
2018-12-30T19:31:30.666Z,8.46
2018-12-30T19:34:01.934Z,8.44
2018-12-30T19:36:33.243Z,8.42
2018-12-30T19:39:05.920Z,8.42
2018-12-30T19:41:37.205Z,8.42
2018-12-30T19:44:08.476Z,8.41
2018-12-30T19:46:39.760Z,8.41
2018-12-30T19:49:11.061Z,8.38
2018-12-30T19:51:42.376Z,8.38
2018-12-30T19:54:13.599Z,8.36
2018-12-30T19:56:44.842Z,8.35
2018-12-30T19:59:16.117Z,8.34
2018-12-30T20:01:47.377Z,8.33
2018-12-30T20:04:18.722Z,8.31
2018-12-30T20:06:50.131Z,8.29
2018-12-30T20:09:21.435Z,8.27
2018-12-30T20:11:52.749Z,8.26
2018-12-30T20:14:24.037Z,8.26
2018-12-30T20:16:56.398Z,8.27
2018-12-30T20:19:27.629Z,8.28
2018-12-30T20:21:58.836Z,8.28
2018-12-30T20:24:29.997Z,8.28
2018-12-30T20:27:01.156Z,8.27
2018-12-30T20:29:32.332Z,8.29
2018-12-30T20:32:03.615Z,8.29
2018-12-30T20:34:34.820Z,8.29
2018-12-30T20:37:06.020Z,8.28
2018-12-30T20:39:37.319Z,8.26
2018-12-30T20:42:08.478Z,8.26
2018-12-30T20:44:39.693Z,8.25
2018-12-30T20:47:10.911Z,8.27
2018-12-30T20:49:42.190Z,8.28
2018-12-30T20:52:13.585Z,8.27
2018-12-30T20:54:44.817Z,8.28
2018-12-30T20:57:16.112Z,8.30
2018-12-30T20:59:47.260Z,8.31
2018-12-30T21:02:18.484Z,8.31
2018-12-30T21:04:49.646Z,8.31
2018-12-30T21:07:20.894Z,8.32
2018-12-30T21:09:52.168Z,8.31
2018-12-30T21:12:23.374Z,8.31
2018-12-30T21:14:54.670Z,8.30
2018-12-30T21:17:25.983Z,8.29
2018-12-30T21:19:57.193Z,8.28
2018-12-30T21:22:28.396Z,8.27
2018-12-30T21:24:59.655Z,8.27
2018-12-30T21:27:30.905Z,8.26
2018-12-30T21:30:02.190Z,8.28
2018-12-30T21:32:33.462Z,8.26
2018-12-30T21:35:04.819Z,8.25
2018-12-30T21:37:36.079Z,8.25
2018-12-30T21:40:07.827Z,8.23
2018-12-30T21:42:43.691Z,8.21
2018-12-30T21:45:12.221Z,8.20
2018-12-30T21:47:43.475Z,8.21
2018-12-30T21:50:14.642Z,8.23
2018-12-30T21:52:45.848Z,8.25
2018-12-30T21:55:17.063Z,8.26
2018-12-30T21:57:48.281Z,8.26
2018-12-30T22:00:19.682Z,8.29
2018-12-30T22:02:50.878Z,8.29
2018-12-30T22:05:22.058Z,8.29
2018-12-30T22:07:53.315Z,8.30
2018-12-30T22:10:24.589Z,8.30
2018-12-30T22:12:55.777Z,8.31
2018-12-30T22:15:26.995Z,8.31
2018-12-30T22:17:58.207Z,8.30
2018-12-30T22:20:29.480Z,8.29
2018-12-30T22:23:00.775Z,8.30
2018-12-30T22:25:32.056Z,8.30
2018-12-30T22:28:03.362Z,8.31
2018-12-30T22:30:34.623Z,8.32
2018-12-30T22:33:05.817Z,8.32
2018-12-30T22:35:37.131Z,8.34
2018-12-30T22:38:08.327Z,8.34
2018-12-30T22:40:39.499Z,8.36
2018-12-30T22:43:14.774Z,8.38
2018-12-30T22:45:46.134Z,8.40
2018-12-30T22:48:17.367Z,8.43
2018-12-30T22:50:48.564Z,8.46
2018-12-30T22:53:19.932Z,8.49
2018-12-30T22:55:51.169Z,8.50
2018-12-30T22:58:22.445Z,8.50
2018-12-30T23:01:00.409Z,8.49
2018-12-30T23:03:31.851Z,8.49
2018-12-30T23:06:03.142Z,8.50
2018-12-30T23:08:34.587Z,8.51
2018-12-30T23:11:05.785Z,8.51
2018-12-30T23:13:36.991Z,8.54
2018-12-30T23:16:08.227Z,8.56
2018-12-30T23:18:40.332Z,8.57
2018-12-30T23:21:11.519Z,8.58
2018-12-30T23:23:42.766Z,8.59
2018-12-30T23:26:13.954Z,8.59
2018-12-30T23:28:45.254Z,8.58
2018-12-30T23:31:16.547Z,8.57
2018-12-30T23:33:47.679Z,8.56
2018-12-30T23:36:19.006Z,8.55
2018-12-30T23:38:50.227Z,8.52
2018-12-30T23:41:21.464Z,8.51
2018-12-30T23:43:52.607Z,8.49
2018-12-30T23:46:23.897Z,8.47
2018-12-30T23:48:55.118Z,8.46
2018-12-30T23:51:26.271Z,8.45
2018-12-30T23:53:57.513Z,8.43
2018-12-30T23:56:28.699Z,8.42
2018-12-30T23:58:59.994Z,8.42
